Springdale, Oregon
Current Conditions -  °F | °C
As of 3:53 AM on Friday 19 Dec 2014 (Local Time) from KTTD Reporting Station
Broken Clouds Broken Clouds  
Wind Chill: 40°   Ceiling: 9000
Heat Index: 44°   Visibility: 10mi
Dew Point: 41°   Wind: 7mph
Humidity: 89%   Direction: 90°E
Pressure: 29.91"   Gusts: NA
Location:  45.5277°N, 122.373°W
Report Text: KTTD 191153Z AUTO 09006KT 10SM FEW041 SCT070 BKN090 07/05 A2991 RMK AO2 SLP129 60020 70025 T00670050 10078 20061 51014
Loading
Personal Weather Stations






























Interactive Weather Map New forecast layout! Learn more

10-Day Weather Forecast

Advertisements
Track Severe Weather on mobile